Time;durP1;ratioP1;P1;durP2;ratioP2;P2;SDS_P1;SDS_P2;PMS_P1;PMS_P2;Temp;Humidity;BMP_temperature;BMP_pressure;BME280_temperature;BME280_humidity;BME280_pressure;Samples;Min_cycle;Max_cycle;Signal;HPM_P1;HPM_P2
2023/03/15 00:01:45;;;;;;;8.10;5.00;;;;;;;4.93;55.41;98631.08;107729;1250;75100;-40
2023/03/15 00:04:13;;;;;;;8.30;5.40;;;;;;;4.91;55.57;98627.09;107672;1254;69848;-41
2023/03/15 00:06:43;;;;;;;9.20;4.80;;;;;;;4.86;55.78;98627.88;107618;1251;73566;-41
2023/03/15 00:09:12;;;;;;;8.80;5.10;;;;;;;4.84;55.98;98620.30;107681;1250;60951;-41
2023/03/15 00:11:44;;;;;;;8.00;5.00;;;;;;;4.80;56.16;98615.34;107706;1251;61515;-40
2023/03/15 00:14:12;;;;;;;9.10;5.40;;;;;;;4.77;56.27;98617.79;106915;1250;1002875;-41
2023/03/15 00:16:41;;;;;;;8.50;5.10;;;;;;;4.75;56.50;98614.12;107679;1251;69884;-40
2023/03/15 00:19:10;;;;;;;7.80;5.20;;;;;;;4.71;56.66;98617.77;107698;1250;73836;-40
2023/03/15 00:21:42;;;;;;;8.90;5.00;;;;;;;4.69;56.67;98611.73;107739;1250;60762;-40
2023/03/15 00:24:10;;;;;;;8.10;4.90;;;;;;;4.68;56.87;98611.32;107728;1250;60492;-40
2023/03/15 00:26:39;;;;;;;7.70;3.90;;;;;;;4.66;57.16;98611.09;107723;1250;74756;-41
2023/03/15 00:29:08;;;;;;;6.10;3.90;;;;;;;4.63;57.30;98610.86;107721;1250;70375;-40
2023/03/15 00:31:38;;;;;;;11.30;5.70;;;;;;;4.59;57.55;98614.89;107744;1250;72148;-40
2023/03/15 00:34:06;;;;;;;7.70;5.00;;;;;;;4.56;57.71;98610.70;107675;1250;60811;-39
2023/03/15 00:36:35;;;;;;;8.70;5.10;;;;;;;4.53;57.88;98608.91;107648;1250;61459;-39
2023/03/15 00:39:04;;;;;;;13.60;5.00;;;;;;;4.50;58.03;98609.08;107692;1251;72509;-40
2023/03/15 00:41:33;;;;;;;7.50;4.80;;;;;;;4.49;58.08;98602.91;107775;1250;67896;-39
2023/03/15 00:44:04;;;;;;;8.30;5.30;;;;;;;4.47;58.50;98604.06;107675;1251;73856;-39
2023/03/15 00:46:33;;;;;;;8.00;5.10;;;;;;;4.43;58.67;98605.86;107727;1253;60531;-39
2023/03/15 00:49:02;;;;;;;9.30;5.50;;;;;;;4.40;58.95;98605.70;107676;1250;61517;-40
2023/03/15 00:51:36;;;;;;;9.10;5.40;;;;;;;4.36;59.10;98603.65;106839;1254;1002622;-39
2023/03/15 00:54:04;;;;;;;12.00;6.50;;;;;;;4.32;59.41;98602.91;107615;1251;68781;-40
2023/03/15 00:56:36;;;;;;;9.40;6.10;;;;;;;4.27;59.80;98598.02;107619;1251;73930;-39
2023/03/15 00:59:06;;;;;;;8.10;5.30;;;;;;;4.23;59.99;98603.48;106956;1251;1003543;-39
2023/03/15 01:01:35;;;;;;;8.60;5.30;;;;;;;4.18;60.46;98600.19;107665;1250;61626;-39
2023/03/15 01:04:05;;;;;;;8.00;5.00;;;;;;;4.23;60.34;98596.45;107739;1250;74997;-39
2023/03/15 01:06:33;;;;;;;9.10;5.30;;;;;;;4.28;60.57;98594.90;107681;1251;69996;-39
2023/03/15 01:09:02;;;;;;;10.70;5.80;;;;;;;4.28;60.64;98595.98;107598;1250;73875;-39
2023/03/15 01:11:32;;;;;;;;;;;;;;;4.28;60.99;98595.36;107677;1250;61459;-40
2023/03/15 01:14:02;;;;;;;8.30;5.30;;;;;;;4.21;61.10;98598.14;107774;1251;61280;-39
2023/03/15 01:16:33;;;;;;;9.60;5.40;;;;;;;4.15;61.51;98600.87;107684;1254;74676;-39
2023/03/15 01:19:02;;;;;;;11.80;5.70;;;;;;;4.14;61.50;98593.70;107757;1254;67764;-40
2023/03/15 01:21:30;;;;;;;12.20;6.00;;;;;;;4.12;61.72;98593.63;107652;1250;72819;-40
2023/03/15 01:23:59;;;;;;;10.60;5.30;;;;;;;4.10;62.18;98594.63;107620;1250;60769;-40
2023/03/15 01:26:28;;;;;;;8.80;5.60;;;;;;;4.07;62.31;98591.92;107672;1250;61517;-39
2023/03/15 01:28:57;;;;;;;10.90;6.00;;;;;;;4.03;62.67;98590.73;107699;1254;75058;-39
2023/03/15 01:31:27;;;;;;;10.30;6.00;;;;;;;4.02;62.67;98586.08;107022;1250;1002450;-40
2023/03/15 01:33:57;;;;;;;7.60;5.40;;;;;;;3.99;62.93;98590.85;107692;1250;73840;-40
2023/03/15 01:36:27;;;;;;;9.70;5.60;;;;;;;4.02;63.34;98590.91;107676;1250;62040;-39
2023/03/15 01:38:56;;;;;;;9.00;5.60;;;;;;;4.05;63.37;98595.77;107703;1250;61283;-40
2023/03/15 01:41:30;;;;;;;9.70;6.10;;;;;;;4.02;63.65;98592.27;107718;1251;73738;-40
2023/03/15 01:44:00;;;;;;;8.10;5.30;;;;;;;4.03;63.63;98597.71;107669;1250;68007;-40
2023/03/15 01:46:32;;;;;;;12.60;5.40;;;;;;;4.01;63.92;98599.40;107740;1251;74295;-39
2023/03/15 01:49:24;;;;;;;10.90;6.60;;;;;;;4.00;64.06;98596.68;107655;1250;60430;-41
2023/03/15 01:52:16;;;;;;;10.30;6.20;;;;;;;3.96;64.28;98593.95;107636;1250;61365;-40
2023/03/15 01:55:14;;;;;;;13.00;6.60;;;;;;;3.94;64.56;98596.05;107697;1250;74690;-39
2023/03/15 01:57:56;;;;;;;9.90;5.40;;;;;;;3.88;64.93;98597.69;107620;1254;69837;-40
2023/03/15 02:00:26;;;;;;;7.90;5.50;;;;;;;3.94;64.91;98601.02;107514;1253;74021;-39
2023/03/15 02:03:07;;;;;;;11.60;6.10;;;;;;;3.98;64.89;98602.54;107596;1253;60791;-39
2023/03/15 02:05:44;;;;;;;14.80;6.50;;;;;;;3.99;64.80;98603.79;107554;1252;61448;-40
2023/03/15 02:08:19;;;;;;;10.50;6.90;;;;;;;3.97;64.87;98603.11;107702;1254;73802;-39
2023/03/15 02:10:50;;;;;;;12.20;6.70;;;;;;;3.96;64.99;98604.14;107668;1257;69634;-39
2023/03/15 02:13:21;;;;;;;8.60;6.10;;;;;;;3.93;65.08;98600.54;107677;1251;73699;-40
2023/03/15 02:15:52;;;;;;;9.70;6.80;;;;;;;3.91;65.48;98601.40;107472;1252;60743;-40
2023/03/15 02:18:35;;;;;;;9.00;5.90;;;;;;;3.89;65.57;98604.40;107627;1253;61365;-39
2023/03/15 02:21:13;;;;;;;13.10;6.20;;;;;;;3.94;65.47;98611.29;107591;1253;75022;-39
2023/03/15 02:23:43;;;;;;;8.30;5.70;;;;;;;4.02;65.31;98607.47;107506;1253;69917;-40
2023/03/15 02:26:47;;;;;;;8.70;6.10;;;;;;;4.05;65.32;98605.66;107625;1253;73846;-39
2023/03/15 02:29:16;;;;;;;11.20;6.10;;;;;;;4.08;65.44;98599.85;107564;1253;60798;-40
2023/03/15 02:31:45;;;;;;;13.90;6.60;;;;;;;4.09;65.17;98602.02;107625;1253;60331;-40
2023/03/15 02:34:13;;;;;;;8.90;6.20;;;;;;;4.10;65.31;98604.28;107572;1255;75123;-40
2023/03/15 02:36:42;;;;;;;10.00;6.40;;;;;;;4.09;65.27;98610.27;107640;1253;69963;-40
2023/03/15 02:39:15;;;;;;;9.90;6.90;;;;;;;4.05;65.35;98615.23;107694;1251;73915;-39
2023/03/15 02:41:53;;;;;;;10.30;6.40;;;;;;;4.00;65.48;98610.69;107665;1253;60717;-40
2023/03/15 02:44:34;;;;;;;14.20;6.50;;;;;;;3.95;65.87;98606.95;107627;1251;60774;-40
2023/03/15 02:47:06;;;;;;;12.00;6.00;;;;;;;3.99;65.84;98604.61;107474;1253;75120;-40
2023/03/15 02:49:38;;;;;;;12.30;6.10;;;;;;;4.04;65.79;98609.00;107697;1253;69930;-39
2023/03/15 02:52:08;;;;;;;8.20;5.60;;;;;;;4.06;65.70;98602.46;107626;1254;73858;-40
2023/03/15 02:54:38;;;;;;;8.10;5.70;;;;;;;4.07;65.68;98600.59;107690;1253;60981;-41
2023/03/15 02:57:11;;;;;;;9.30;6.20;;;;;;;4.09;65.56;98599.05;107746;1252;61486;-40
2023/03/15 02:59:41;;;;;;;10.30;6.70;;;;;;;4.08;65.47;98593.41;107749;1252;74991;-39
2023/03/15 03:02:12;;;;;;;11.10;6.10;;;;;;;4.06;65.36;98588.75;107709;1253;69618;-40
2023/03/15 03:04:44;;;;;;;9.00;6.30;;;;;;;4.02;65.50;98588.77;107738;1253;73813;-39
2023/03/15 03:07:13;;;;;;;10.10;6.60;;;;;;;3.99;65.70;98586.20;107727;1251;60403;-40
2023/03/15 03:09:50;;;;;;;8.50;5.90;;;;;;;3.94;65.56;98585.10;107697;1253;61315;-40
2023/03/15 03:12:19;;;;;;;13.80;6.10;;;;;;;3.89;65.84;98581.73;107625;1252;75078;-39
2023/03/15 03:14:52;;;;;;;18.40;6.70;;;;;;;3.90;65.74;98574.33;107545;1256;69736;-39
2023/03/15 03:17:23;;;;;;;10.50;6.40;;;;;;;3.95;65.82;98575.07;107578;1251;73666;-39
2023/03/15 03:19:52;;;;;;;11.60;6.70;;;;;;;3.92;66.06;98572.09;107648;1252;60418;-40
2023/03/15 03:22:25;;;;;;;10.10;5.70;;;;;;;3.89;66.40;98572.98;107592;1253;61308;-40
2023/03/15 03:24:54;;;;;;;7.30;5.00;;;;;;;3.85;66.44;98569.73;107796;1256;73788;-40
2023/03/15 03:27:24;;;;;;;9.20;6.40;;;;;;;3.79;66.47;98562.94;107710;1253;69447;-41
2023/03/15 03:29:53;;;;;;;10.50;6.80;;;;;;;3.74;66.28;98561.08;107602;1253;73578;-41
2023/03/15 03:32:21;;;;;;;10.50;7.00;;;;;;;3.68;66.85;98560.65;107705;1253;61259;-41
2023/03/15 03:34:54;;;;;;;9.70;6.10;;;;;;;3.62;67.06;98556.01;107705;1252;61661;-40
2023/03/15 03:37:23;;;;;;;9.20;5.70;;;;;;;3.62;67.06;98562.45;107696;1251;73573;-40
2023/03/15 03:40:07;;;;;;;12.10;6.40;;;;;;;3.68;67.05;98562.55;106234;1253;1005605;-40
2023/03/15 03:42:36;;;;;;;9.60;6.20;;;;;;;3.67;67.05;98563.29;107612;1252;73885;-40
2023/03/15 03:45:06;;;;;;;8.60;6.40;;;;;;;3.66;67.08;98562.10;107666;1251;60513;-40
2023/03/15 03:47:37;;;;;;;12.10;7.00;;;;;;;3.64;67.00;98571.64;107652;1257;60413;-40
2023/03/15 03:50:07;;;;;;;12.80;7.20;;;;;;;3.62;67.28;98571.70;107719;1252;72544;-39
2023/03/15 03:52:36;;;;;;;11.10;6.90;;;;;;;3.58;67.39;98571.02;107641;1253;69750;-39
2023/03/15 03:55:09;;;;;;;15.00;7.60;;;;;;;3.51;67.60;98571.25;107658;1252;73556;-39
2023/03/15 03:57:37;;;;;;;10.70;7.00;;;;;;;3.45;68.00;98573.73;107728;1252;61189;-38
2023/03/15 04:00:09;;;;;;;15.20;7.20;;;;;;;3.47;67.98;98580.36;107589;1252;175908;-39
2023/03/15 04:04:33;;;;;;;13.00;7.50;;;;;;;3.48;68.22;98573.36;104244;1292;601066;-40
2023/03/15 04:07:03;;;;;;;12.00;7.20;;;;;;;3.43;68.47;98572.89;106853;1269;60457;-40
2023/03/15 04:09:37;;;;;;;17.50;7.60;;;;;;;3.40;68.61;98574.16;106801;1265;61583;-39
2023/03/15 04:12:09;;;;;;;12.90;7.40;;;;;;;3.36;68.69;98576.73;106725;1266;73575;-40
2023/03/15 04:14:41;;;;;;;10.80;6.70;;;;;;;3.32;68.82;98571.16;106699;1264;69572;-39
2023/03/15 04:17:11;;;;;;;11.90;6.60;;;;;;;3.31;68.98;98571.65;106464;1267;403481;-38
2023/03/15 04:19:45;;;;;;;12.30;6.50;;;;;;;3.36;68.79;98573.66;106813;1266;62231;-39
2023/03/15 04:22:17;;;;;;;9.60;6.80;;;;;;;3.44;68.62;98584.59;106880;1266;61338;-39
2023/03/15 04:25:08;;;;;;;;;;;;;;;3.48;68.69;98588.45;106878;1263;73437;-40
2023/03/15 04:28:03;;;;;;;10.50;6.50;;;;;;;3.43;68.70;98594.31;106800;1264;69050;-40
2023/03/15 04:30:57;;;;;;;12.00;7.20;;;;;;;3.39;69.08;98595.11;106781;1264;73859;-39
2023/03/15 04:33:39;;;;;;;12.40;7.70;;;;;;;3.37;69.00;98593.20;106769;1264;60577;-39
2023/03/15 04:36:25;;;;;;;13.40;7.70;;;;;;;3.35;69.13;98597.35;106803;1264;61393;-39
2023/03/15 04:39:13;;;;;;;13.40;7.30;;;;;;;3.32;69.36;98596.94;106824;1267;73981;-39
2023/03/15 04:41:49;;;;;;;10.20;6.90;;;;;;;3.37;69.25;98594.80;106839;1267;69673;-39
2023/03/15 04:44:44;;;;;;;9.00;6.30;;;;;;;3.48;68.95;98602.61;106793;1264;73855;-39
2023/03/15 04:47:23;;;;;;;7.00;5.10;;;;;;;3.50;69.30;98598.88;106810;1264;60251;-39
2023/03/15 04:50:06;;;;;;;8.70;6.90;;;;;;;3.54;69.20;98603.21;106813;1264;61307;-39
2023/03/15 04:52:48;;;;;;;9.20;6.90;;;;;;;3.55;69.42;98611.61;106797;1264;74138;-39
2023/03/15 04:55:46;;;;;;;12.40;6.70;;;;;;;3.51;69.63;98612.39;106513;1264;70064;-39
2023/03/15 04:58:37;;;;;;;10.90;6.50;;;;;;;3.48;69.71;98613.80;106788;1264;73607;-40
2023/03/15 05:01:29;;;;;;;10.50;5.90;;;;;;;3.53;69.77;98619.46;106776;1264;62208;-40
2023/03/15 05:04:18;;;;;;;8.40;5.80;;;;;;;3.62;69.48;98617.73;106691;1267;61215;-40
2023/03/15 05:07:03;;;;;;;9.00;6.30;;;;;;;3.66;69.46;98621.92;106782;1264;73783;-40
2023/03/15 05:09:50;;;;;;;10.30;6.90;;;;;;;3.67;69.54;98628.30;106804;1264;69956;-40
2023/03/15 05:12:39;;;;;;;15.00;7.20;;;;;;;3.66;69.32;98629.27;106702;1264;73177;-40
2023/03/15 05:15:46;;;;;;;14.60;6.80;;;;;;;3.67;69.42;98630.31;106293;1270;59499;-40
2023/03/15 05:18:34;;;;;;;12.00;6.80;;;;;;;3.66;69.29;98634.88;106702;1263;61234;-40
2023/03/15 05:21:27;;;;;;;11.10;6.40;;;;;;;3.67;69.41;98639.70;106534;1263;73675;-40
2023/03/15 05:24:18;;;;;;;10.10;6.50;;;;;;;3.76;68.97;98638.65;106633;1263;70200;-39
2023/03/15 05:26:54;;;;;;;9.60;6.80;;;;;;;3.81;69.19;98641.59;106738;1263;74246;-40
2023/03/15 05:29:55;;;;;;;10.70;7.00;;;;;;;3.85;69.08;98648.39;106567;1264;60805;-40
2023/03/15 05:32:43;;;;;;;12.00;7.00;;;;;;;3.84;68.94;98652.19;106775;1264;61510;-40
2023/03/15 05:35:31;;;;;;;11.90;7.00;;;;;;;3.85;69.28;98659.73;106788;1263;74349;-40
2023/03/15 05:38:32;;;;;;;13.50;7.30;;;;;;;3.87;69.10;98660.95;106615;1263;70066;-39
2023/03/15 05:41:22;;;;;;;9.30;6.60;;;;;;;3.85;69.45;98654.89;106698;1263;72666;-40
2023/03/15 05:44:21;;;;;;;8.40;6.50;;;;;;;3.96;69.05;98658.39;106856;1260;60973;-40
2023/03/15 05:47:09;;;;;;;10.80;6.30;;;;;;;4.06;69.11;98651.15;106940;1260;61168;-39
2023/03/15 05:49:49;;;;;;;11.60;7.20;;;;;;;4.15;69.08;98647.84;106999;1260;72915;-40
2023/03/15 05:52:35;;;;;;;11.60;6.70;;;;;;;4.24;68.76;98644.75;106937;1265;69791;-40
2023/03/15 05:55:23;;;;;;;11.40;6.70;;;;;;;4.26;68.38;98644.22;106972;1261;74083;-40
2023/03/15 05:58:11;;;;;;;12.30;7.20;;;;;;;4.25;68.77;98643.73;106943;1260;60707;-40
2023/03/15 06:01:03;;;;;;;11.60;6.70;;;;;;;4.28;68.69;98640.14;106959;1260;61385;-40
2023/03/15 06:03:45;;;;;;;14.40;6.90;;;;;;;4.41;68.75;98639.46;106983;1260;73921;-39
2023/03/15 06:06:18;;;;;;;11.70;7.00;;;;;;;4.53;68.50;98639.23;106968;1260;68628;-40
2023/03/15 06:08:46;;;;;;;9.90;6.20;;;;;;;4.63;68.18;98645.29;106926;1260;73963;-40
2023/03/15 06:11:17;;;;;;;12.20;6.60;;;;;;;4.70;67.82;98644.58;106921;1265;59635;-40
2023/03/15 06:13:46;;;;;;;13.30;6.60;;;;;;;4.76;67.66;98639.48;106930;1262;61224;-40
2023/03/15 06:16:33;;;;;;;13.60;7.00;;;;;;;4.85;67.36;98637.44;106879;1260;74322;-40
2023/03/15 06:19:03;;;;;;;14.30;6.50;;;;;;;4.90;66.96;98644.48;106881;1260;69661;-40
2023/03/15 06:21:32;;;;;;;11.50;7.40;;;;;;;4.92;67.03;98646.70;106858;1261;74239;-40
2023/03/15 06:24:05;;;;;;;14.90;7.70;;;;;;;4.95;66.82;98648.08;106951;1260;59647;-39
2023/03/15 06:26:34;;;;;;;10.10;7.00;;;;;;;4.98;66.65;98647.80;107063;1260;60298;-40
2023/03/15 06:29:03;;;;;;;12.70;7.00;;;;;;;5.08;66.67;98643.79;107046;1260;73406;-40
2023/03/15 06:31:32;;;;;;;10.80;6.20;;;;;;;5.23;66.46;98643.61;106932;1261;68590;-40
2023/03/15 06:34:03;;;;;;;10.10;6.40;;;;;;;5.37;66.14;98636.64;106905;1264;73782;-40
2023/03/15 06:36:35;;;;;;;;;;;;;;;5.43;65.95;98633.73;106933;1260;61372;-40
2023/03/15 06:39:04;;;;;;;9.80;6.50;;;;;;;5.44;65.94;98634.80;106917;1262;61221;-40
2023/03/15 06:41:35;;;;;;;12.60;6.00;;;;;;;5.51;66.09;98632.54;106951;1261;73930;-40
2023/03/15 06:44:08;;;;;;;12.00;6.50;;;;;;;5.67;65.79;98636.97;107020;1260;69704;-39
2023/03/15 06:46:39;;;;;;;10.70;6.60;;;;;;;5.79;65.10;98640.36;107194;1256;72592;-40
2023/03/15 06:49:11;;;;;;;11.60;6.40;;;;;;;5.85;65.13;98632.46;107126;1257;60577;-40
2023/03/15 06:51:43;;;;;;;11.00;6.90;;;;;;;5.95;64.99;98631.19;107274;1256;61492;-40
2023/03/15 06:54:12;;;;;;;12.40;6.60;;;;;;;6.01;64.66;98630.26;107202;1257;74238;-39
2023/03/15 06:56:41;;;;;;;10.70;6.00;;;;;;;6.02;64.40;98630.08;107135;1256;68458;-39
2023/03/15 06:59:11;;;;;;;9.80;5.90;;;;;;;6.10;64.34;98624.27;107276;1256;71882;-39
2023/03/15 07:01:40;;;;;;;9.60;5.40;;;;;;;6.20;63.94;98623.58;107184;1257;61457;-39
2023/03/15 07:04:09;;;;;;;9.50;5.70;;;;;;;6.25;63.97;98624.31;107165;1256;61535;-39
2023/03/15 07:06:39;;;;;;;11.80;6.00;;;;;;;6.27;63.88;98635.23;107209;1256;74411;-41
2023/03/15 07:09:07;;;;;;;11.70;6.50;;;;;;;6.28;63.94;98625.63;107113;1257;69982;-41
2023/03/15 07:11:36;;;;;;;13.70;6.80;;;;;;;6.27;63.76;98635.30;107078;1256;72346;-40
2023/03/15 07:14:05;;;;;;;11.60;6.30;;;;;;;6.26;63.94;98638.19;107352;1257;59727;-39
2023/03/15 07:16:33;;;;;;;13.40;6.60;;;;;;;6.26;63.88;98630.75;107419;1256;61495;-40
2023/03/15 07:19:02;;;;;;;11.20;6.40;;;;;;;6.31;64.23;98630.40;107354;1257;74128;-40
2023/03/15 07:21:32;;;;;;;10.00;6.00;;;;;;;6.38;64.47;98631.40;107442;1256;67530;-40
2023/03/15 07:24:00;;;;;;;10.70;5.90;;;;;;;6.53;64.09;98624.13;107260;1256;73905;-40
2023/03/15 07:26:29;;;;;;;8.80;5.70;;;;;;;6.65;63.39;98618.39;107349;1256;61725;-39
2023/03/15 07:28:58;;;;;;;11.40;6.40;;;;;;;6.73;63.21;98619.19;107388;1257;61369;-39
2023/03/15 07:31:27;;;;;;;10.80;6.50;;;;;;;6.82;62.96;98617.91;107369;1255;74595;-39
2023/03/15 07:33:56;;;;;;;11.90;6.50;;;;;;;6.91;62.83;98618.05;107411;1257;69780;-40
2023/03/15 07:36:25;;;;;;;8.30;5.60;;;;;;;7.04;62.64;98618.47;107364;1260;73861;-39
2023/03/15 07:38:54;;;;;;;9.70;6.10;;;;;;;7.19;62.51;98621.39;107341;1256;60780;-38
2023/03/15 07:41:24;;;;;;;9.60;5.80;;;;;;;7.36;61.62;98625.82;107359;1257;61190;-39
2023/03/15 07:44:08;;;;;;;11.50;6.40;;;;;;;7.54;61.02;98620.55;107366;1256;74361;-38
2023/03/15 07:46:37;;;;;;;10.20;6.50;;;;;;;7.66;60.57;98625.47;107372;1258;69943;-38
2023/03/15 07:49:06;;;;;;;10.10;6.80;;;;;;;7.77;60.29;98616.88;107370;1256;73925;-38
2023/03/15 07:51:34;;;;;;;8.80;6.10;;;;;;;7.89;60.21;98612.46;107370;1257;60537;-38
2023/03/15 07:54:10;;;;;;;8.70;6.00;;;;;;;8.06;60.04;98617.38;107361;1259;61392;-38
2023/03/15 07:56:39;;;;;;;10.70;6.40;;;;;;;8.22;59.25;98619.73;107426;1257;73991;-39
2023/03/15 07:59:08;;;;;;;10.80;6.20;;;;;;;8.39;59.60;98614.70;107400;1258;69912;-39
2023/03/15 08:01:37;;;;;;;8.00;6.20;;;;;;;8.60;58.88;98619.10;107386;1257;73953;-39
2023/03/15 08:04:06;;;;;;;11.80;6.60;;;;;;;8.78;58.03;98615.66;107386;1257;59496;-39
2023/03/15 08:06:35;;;;;;;11.30;6.10;;;;;;;8.94;58.22;98611.78;107395;1257;61498;-38
2023/03/15 08:09:05;;;;;;;9.30;5.60;;;;;;;9.12;57.43;98616.50;107419;1255;73238;-39
2023/03/15 08:11:34;;;;;;;8.10;4.20;;;;;;;9.29;56.75;98627.21;107441;1259;69924;-39
2023/03/15 08:14:09;;;;;;;9.00;5.60;;;;;;;9.40;55.93;98626.95;107344;1257;73958;-39
2023/03/15 08:16:38;;;;;;;9.10;5.00;;;;;;;9.47;55.95;98624.19;107381;1257;61514;-38
2023/03/15 08:19:08;;;;;;;;;;;;;;;9.61;55.46;98622.08;107401;1256;61592;-38
2023/03/15 08:21:37;;;;;;;9.00;5.30;;;;;;;9.67;55.57;98620.61;107366;1256;74208;-39
2023/03/15 08:24:06;;;;;;;9.30;5.50;;;;;;;9.78;54.60;98620.95;107288;1256;70304;-39
2023/03/15 08:26:36;;;;;;;7.50;5.10;;;;;;;9.95;54.09;98619.65;107311;1257;73650;-39
2023/03/15 08:29:05;;;;;;;6.90;4.60;;;;;;;10.15;54.17;98617.38;107391;1257;61595;-39
2023/03/15 08:31:33;;;;;;;12.10;5.50;;;;;;;10.35;53.29;98612.35;107371;1257;61614;-39
2023/03/15 08:34:02;;;;;;;8.10;5.10;;;;;;;10.49;52.96;98606.48;107352;1257;74985;-39
2023/03/15 08:36:38;;;;;;;9.00;4.90;;;;;;;10.60;51.24;98608.27;107354;1258;69770;-39
2023/03/15 08:39:07;;;;;;;10.30;4.80;;;;;;;10.67;51.76;98597.94;107415;1256;73803;-39
2023/03/15 08:41:36;;;;;;;7.20;4.10;;;;;;;10.77;50.94;98598.94;107221;1257;61346;-39
2023/03/15 08:44:10;;;;;;;8.70;4.50;;;;;;;10.89;49.49;98602.02;107254;1256;60876;-39
2023/03/15 08:46:39;;;;;;;7.20;4.70;;;;;;;10.99;49.09;98591.06;107409;1257;75048;-39
2023/03/15 08:49:08;;;;;;;8.60;4.80;;;;;;;11.11;49.57;98589.57;107359;1260;69514;-40
2023/03/15 08:51:37;;;;;;;11.60;4.90;;;;;;;11.27;49.60;98590.71;107307;1257;73914;-39
2023/03/15 08:54:06;;;;;;;8.50;5.10;;;;;;;11.42;49.26;98592.31;107298;1259;61839;-40
2023/03/15 08:56:41;;;;;;;6.00;4.00;;;;;;;11.58;48.21;98590.89;107332;1257;61678;-40
2023/03/15 08:59:10;;;;;;;5.10;3.70;;;;;;;11.77;46.92;98589.63;107384;1256;75118;-40
2023/03/15 09:01:43;;;;;;;7.70;4.30;;;;;;;11.95;47.78;98588.50;107372;1256;69945;-40
2023/03/15 09:04:13;;;;;;;6.30;5.00;;;;;;;12.25;47.57;98586.95;107397;1258;73782;-40
2023/03/15 09:06:42;;;;;;;7.60;4.30;;;;;;;12.57;47.23;98592.11;106663;1256;1003606;-39
2023/03/15 09:09:16;;;;;;;8.10;4.90;;;;;;;12.84;45.85;98593.31;107386;1255;60590;-40
2023/03/15 09:11:44;;;;;;;5.50;4.20;;;;;;;13.01;45.49;98586.89;107413;1257;75033;-39
2023/03/15 09:14:13;;;;;;;7.30;4.40;;;;;;;13.19;44.96;98587.23;107403;1256;69358;-40
2023/03/15 09:16:42;;;;;;;8.50;4.40;;;;;;;13.36;44.16;98585.52;107345;1256;73887;-40
2023/03/15 09:19:10;;;;;;;8.40;5.30;;;;;;;13.49;44.20;98581.42;107200;1256;60563;-40
2023/03/15 09:21:39;;;;;;;7.10;4.10;;;;;;;13.64;44.36;98576.14;107244;1256;61511;-40
2023/03/15 09:24:10;;;;;;;8.50;4.40;;;;;;;13.85;43.57;98578.63;107260;1260;73168;-40
2023/03/15 09:26:40;;;;;;;5.10;3.80;;;;;;;14.05;43.32;98576.70;107311;1257;69903;-40
2023/03/15 09:29:11;;;;;;;6.10;4.40;;;;;;;14.23;43.51;98570.24;107277;1256;72623;-40
2023/03/15 09:31:40;;;;;;;6.20;4.20;;;;;;;14.56;43.34;98573.95;107267;1256;61566;-40
2023/03/15 09:34:09;;;;;;;6.20;4.20;;;;;;;14.92;42.85;98573.49;107264;1257;61288;-40
2023/03/15 09:36:37;;;;;;;8.00;4.50;;;;;;;15.20;42.12;98573.16;107330;1256;75055;-40
2023/03/15 09:39:07;;;;;;;8.10;4.20;;;;;;;15.48;40.80;98567.81;107285;1256;68915;-40
2023/03/15 09:41:43;;;;;;;6.20;4.70;;;;;;;15.64;39.30;98572.06;107276;1259;73610;-39
2023/03/15 09:44:20;;;;;;;9.10;5.10;;;;;;;15.57;39.66;98564.52;107331;1256;60489;-40
2023/03/15 09:46:51;;;;;;;7.60;5.20;;;;;;;15.53;40.64;98569.55;107330;1256;61958;-40
2023/03/15 09:49:58;;;;;;;9.50;5.10;;;;;;;15.64;40.18;98566.13;107236;1259;75032;-40
2023/03/15 09:52:49;;;;;;;7.90;5.60;;;;;;;15.81;40.24;98560.80;107218;1256;69800;-39
2023/03/15 09:55:20;;;;;;;7.50;5.50;;;;;;;15.90;40.12;98558.56;107241;1256;73878;-39
2023/03/15 09:57:56;;;;;;;6.60;4.60;;;;;;;15.90;40.07;98554.80;107193;1257;61588;-39
2023/03/15 10:00:44;;;;;;;5.60;4.20;;;;;;;15.97;39.36;98552.42;107205;1256;61349;-40
2023/03/15 10:03:38;;;;;;;5.80;4.60;;;;;;;16.11;37.10;98550.73;107225;1257;74234;-39
2023/03/15 10:06:21;;;;;;;8.90;4.80;;;;;;;16.11;36.64;98549.02;107230;1257;69968;-39
2023/03/15 10:08:56;;;;;;;8.00;4.50;;;;;;;15.98;37.31;98551.64;107255;1256;73930;-40
2023/03/15 10:12:03;;;;;;;8.50;4.20;;;;;;;15.97;37.18;98549.94;107209;1256;61470;-40
2023/03/15 10:14:38;;;;;;;8.50;4.20;;;;;;;16.15;36.39;98553.65;107090;1256;60378;-39
2023/03/15 10:17:11;;;;;;;7.70;4.20;;;;;;;16.23;36.42;98552.48;107135;1257;75040;-40
2023/03/15 10:19:50;;;;;;;5.50;3.70;;;;;;;16.35;35.23;98548.38;107224;1256;69810;-40
2023/03/15 10:22:30;;;;;;;7.10;4.00;;;;;;;16.35;35.44;98546.80;107148;1257;73063;-39
2023/03/15 10:25:10;;;;;;;6.60;3.80;;;;;;;16.45;34.80;98546.88;107251;1255;61616;-41
2023/03/15 10:27:42;;;;;;;8.60;4.40;;;;;;;16.61;34.94;98539.86;107158;1256;60408;-40
2023/03/15 10:30:24;;;;;;;5.30;3.90;;;;;;;16.87;35.39;98538.45;107187;1257;74121;-40
2023/03/15 10:33:21;;;;;;;5.20;3.60;;;;;;;17.22;34.34;98536.96;107228;1256;69863;-39
2023/03/15 10:35:50;;;;;;;4.30;3.10;;;;;;;17.36;32.85;98528.81;107042;1257;73574;-38
2023/03/15 10:38:26;;;;;;;6.80;4.50;;;;;;;17.39;32.22;98525.77;107066;1258;61612;-39
2023/03/15 10:40:58;;;;;;;6.40;4.80;;;;;;;17.52;34.39;98523.36;107198;1256;61362;-39
2023/03/15 10:43:35;;;;;;;4.50;3.00;;;;;;;17.73;34.06;98527.31;107279;1256;74156;-39
2023/03/15 10:46:12;;;;;;;6.10;3.10;;;;;;;17.91;30.38;98522.66;107109;1258;69939;-39
2023/03/15 10:48:52;;;;;;;7.40;3.70;;;;;;;18.06;30.93;98513.67;107135;1258;74424;-39
2023/03/15 10:51:23;;;;;;;6.80;3.90;;;;;;;18.43;32.13;98513.44;107162;1257;61358;-39
2023/03/15 10:54:06;;;;;;;9.20;4.50;;;;;;;18.65;32.75;98514.42;107233;1256;61582;-40
2023/03/15 10:56:47;;;;;;;7.40;4.10;;;;;;;18.89;32.15;98515.72;107025;1263;75153;-39
2023/03/15 10:59:17;;;;;;;;;;;;;;;18.99;31.04;98511.21;107137;1262;68780;-40
2023/03/15 11:01:47;;;;;;;6.60;4.20;;;;;;;18.95;30.77;98513.36;107082;1259;73899;-39
2023/03/15 11:04:23;;;;;;;3.80;2.90;;;;;;;18.86;30.13;98515.50;107107;1259;61430;-39
2023/03/15 11:06:57;;;;;;;4.60;3.10;;;;;;;18.71;29.24;98511.99;107123;1256;60273;-41
2023/03/15 11:09:25;;;;;;;6.60;3.70;;;;;;;18.64;29.49;98510.53;107204;1256;75068;-38
2023/03/15 11:12:02;;;;;;;5.00;3.60;;;;;;;18.72;30.01;98515.27;107250;1258;69641;-39
2023/03/15 11:14:35;;;;;;;5.70;4.00;;;;;;;18.76;30.93;98516.34;106968;1256;73736;-40
2023/03/15 11:17:06;;;;;;;6.10;4.10;;;;;;;18.71;31.71;98522.36;107066;1260;61713;-40
2023/03/15 11:19:38;;;;;;;4.60;3.40;;;;;;;18.51;30.86;98526.55;107028;1256;60413;-40
2023/03/15 11:22:11;;;;;;;8.80;4.50;;;;;;;18.38;31.75;98517.16;107086;1256;73963;-40
2023/03/15 11:24:40;;;;;;;8.80;4.30;;;;;;;18.37;31.71;98518.70;107158;1257;69936;-39
2023/03/15 11:27:11;;;;;;;9.50;4.80;;;;;;;18.25;31.67;98518.05;107163;1257;72374;-40
2023/03/15 11:29:50;;;;;;;6.60;4.10;;;;;;;18.14;31.86;98509.00;107182;1256;61548;-40
2023/03/15 11:32:21;;;;;;;5.10;3.70;;;;;;;18.22;31.39;98505.89;107265;1257;61533;-39
2023/03/15 11:35:07;;;;;;;7.40;4.10;;;;;;;18.26;30.78;98500.86;107263;1256;75120;-39
2023/03/15 11:37:45;;;;;;;5.60;3.90;;;;;;;18.30;31.05;98500.20;107221;1260;69621;-40
2023/03/15 11:40:21;;;;;;;5.30;3.90;;;;;;;18.46;31.64;98495.70;107220;1260;73816;-40
2023/03/15 11:42:54;;;;;;;4.90;3.50;;;;;;;18.67;30.91;98493.84;107127;1256;61372;-39
2023/03/15 11:45:35;;;;;;;4.80;3.50;;;;;;;18.82;30.45;98496.55;107258;1260;61544;-39
2023/03/15 11:48:39;;;;;;;6.40;3.80;;;;;;;18.78;30.49;98504.35;107229;1257;75070;-39
2023/03/15 11:51:10;;;;;;;4.70;3.20;;;;;;;18.58;29.70;98511.79;107224;1257;70070;-40
2023/03/15 11:54:03;;;;;;;4.90;3.40;;;;;;;18.35;30.15;98520.85;107114;1257;73975;-40
2023/03/15 11:56:43;;;;;;;5.60;3.40;;;;;;;18.09;29.95;98524.01;107206;1257;61589;-39
2023/03/15 11:59:24;;;;;;;5.90;3.90;;;;;;;17.63;31.01;98527.83;107201;1257;61367;-39
2023/03/15 12:02:00;;;;;;;7.30;4.10;;;;;;;17.14;31.61;98527.89;107179;1257;74822;-39
2023/03/15 12:04:32;;;;;;;8.50;4.10;;;;;;;16.75;31.98;98521.00;107107;1257;68435;-40
2023/03/15 12:07:05;;;;;;;5.70;3.50;;;;;;;16.72;32.88;98519.89;107197;1257;74008;-39